createdAt,value
2019-02-26T00:02:23.602Z,1.10
2019-02-26T00:05:03.630Z,1.30
2019-02-26T00:07:44.353Z,1.17
2019-02-26T00:10:26.573Z,0.98
2019-02-26T00:13:05.126Z,1.30
2019-02-26T00:15:45.919Z,1.47
2019-02-26T00:18:27.130Z,1.00
2019-02-26T00:21:06.975Z,1.20
2019-02-26T00:23:46.666Z,1.07
2019-02-26T00:26:28.170Z,1.27
2019-02-26T00:29:08.484Z,1.00
2019-02-26T00:31:49.011Z,0.93
2019-02-26T00:34:30.519Z,1.00
2019-02-26T00:37:10.644Z,1.10
2019-02-26T00:39:51.782Z,1.00
2019-02-26T00:42:32.036Z,1.10
2019-02-26T00:45:11.918Z,0.90
2019-02-26T00:47:51.478Z,1.10
2019-02-26T00:50:34.508Z,1.35
2019-02-26T00:53:12.470Z,1.10
2019-02-26T00:55:54.335Z,1.10
2019-02-26T00:58:37.031Z,1.20
2019-02-26T01:01:15.329Z,1.20
2019-02-26T01:03:55.528Z,1.10
2019-02-26T01:06:35.494Z,1.10
2019-02-26T01:09:15.574Z,1.07
2019-02-26T01:11:55.035Z,0.90
2019-02-26T01:14:34.942Z,0.95
2019-02-26T01:17:14.906Z,1.07
2019-02-26T01:19:56.486Z,1.00
2019-02-26T01:22:37.851Z,0.95
2019-02-26T01:25:22.347Z,1.22
2019-02-26T01:28:00.596Z,1.15
2019-02-26T01:30:40.708Z,1.00
2019-02-26T01:33:22.329Z,1.00
2019-02-26T01:36:02.677Z,1.40
2019-02-26T01:38:44.385Z,0.75
2019-02-26T01:41:25.474Z,0.85
2019-02-26T01:44:05.764Z,1.10
2019-02-26T01:46:44.898Z,0.95
2019-02-26T01:49:25.855Z,1.00
2019-02-26T01:52:06.225Z,1.10
2019-02-26T01:54:46.798Z,0.80
2019-02-26T01:57:27.751Z,1.00
2019-02-26T02:00:07.606Z,1.10
2019-02-26T02:02:47.508Z,1.00
2019-02-26T02:05:28.846Z,0.95
2019-02-26T02:08:11.032Z,1.50
2019-02-26T02:10:49.631Z,1.12
2019-02-26T02:13:30.663Z,1.10
2019-02-26T02:16:11.117Z,1.20
2019-02-26T02:18:51.238Z,1.00
2019-02-26T02:21:33.304Z,1.20
2019-02-26T02:24:14.709Z,0.93
2019-02-26T02:26:55.578Z,0.90
2019-02-26T02:29:36.308Z,0.90
2019-02-26T02:32:16.383Z,1.10
2019-02-26T02:35:00.925Z,1.42
2019-02-26T02:37:37.271Z,0.95
2019-02-26T02:40:17.260Z,1.30
2019-02-26T02:42:56.562Z,0.88
2019-02-26T02:45:36.534Z,0.95
2019-02-26T02:48:16.710Z,1.00
2019-02-26T02:50:56.697Z,1.10
2019-02-26T02:53:34.202Z,1.05
2019-02-26T02:56:20.339Z,1.30
2019-02-26T02:59:00.028Z,1.20
2019-02-26T03:01:39.890Z,1.10
2019-02-26T03:04:06.432Z,0.98
2019-02-26T03:06:53.566Z,0.90
2019-02-26T03:09:37.117Z,1.10
2019-02-26T03:12:19.903Z,0.88
2019-02-26T03:15:02.059Z,1.15
2019-02-26T03:17:40.859Z,1.10
2019-02-26T03:20:22.318Z,1.10
2019-02-26T03:23:04.072Z,1.15
2019-02-26T03:25:44.549Z,1.10
2019-02-26T03:28:24.831Z,1.02
2019-02-26T03:31:04.980Z,1.00
2019-02-26T03:33:44.759Z,1.00
2019-02-26T03:36:24.120Z,1.22
2019-02-26T03:39:04.018Z,1.10
2019-02-26T03:41:45.796Z,1.10
2019-02-26T03:44:24.296Z,1.10
2019-02-26T03:47:04.527Z,1.10
2019-02-26T03:49:44.237Z,1.00
2019-02-26T03:52:23.470Z,1.30
2019-02-26T03:55:04.358Z,1.20
2019-02-26T03:57:47.555Z,1.02
2019-02-26T04:00:26.130Z,1.02
2019-02-26T04:03:09.092Z,1.10
2019-02-26T04:05:47.467Z,0.95
2019-02-26T04:08:30.093Z,1.10
2019-02-26T04:11:09.312Z,1.12
2019-02-26T04:13:51.552Z,1.15
2019-02-26T04:16:32.444Z,1.12
2019-02-26T04:19:11.638Z,0.90
2019-02-26T04:21:51.623Z,1.17
2019-02-26T04:24:33.289Z,0.80
2019-02-26T04:27:36.130Z,1.00
2019-02-26T04:30:16.227Z,1.10
2019-02-26T04:32:56.172Z,1.30
2019-02-26T04:35:36.310Z,1.02
2019-02-26T04:38:18.151Z,1.00
2019-02-26T04:41:00.232Z,1.27
2019-02-26T04:43:38.850Z,1.10
2019-02-26T04:46:18.371Z,0.88
2019-02-26T04:48:58.467Z,1.30
2019-02-26T04:51:41.514Z,1.15
2019-02-26T04:54:23.791Z,1.02
2019-02-26T04:57:01.626Z,1.15
2019-02-26T04:59:43.928Z,0.90
2019-02-26T05:02:23.224Z,1.10
2019-02-26T05:05:03.048Z,1.20
2019-02-26T05:07:45.041Z,1.20
2019-02-26T05:10:27.046Z,1.32
2019-02-26T05:13:07.340Z,1.10
2019-02-26T05:15:47.112Z,1.00
2019-02-26T05:18:28.537Z,1.20
2019-02-26T05:21:08.328Z,1.20
2019-02-26T05:23:46.607Z,1.30
2019-02-26T05:26:33.509Z,1.15
2019-02-26T05:29:13.225Z,0.90
2019-02-26T05:31:55.447Z,1.07
2019-02-26T05:34:34.114Z,1.05
2019-02-26T05:37:14.102Z,0.85
2019-02-26T05:39:54.105Z,1.15
2019-02-26T05:42:39.200Z,0.90
2019-02-26T05:45:18.589Z,1.20
2019-02-26T05:47:58.984Z,1.10
2019-02-26T05:53:35.074Z,1.17
2019-02-26T05:56:22.923Z,1.20
2019-02-26T05:59:06.822Z,1.07
2019-02-26T06:01:46.576Z,1.02
2019-02-26T06:04:26.180Z,1.00
2019-02-26T06:07:06.154Z,1.25
2019-02-26T06:09:48.000Z,1.17
2019-02-26T06:12:27.025Z,1.15
2019-02-26T06:15:07.524Z,1.10
2019-02-26T06:17:48.158Z,1.10
2019-02-26T06:20:32.176Z,1.07
2019-02-26T06:23:09.110Z,1.10
2019-02-26T06:25:58.118Z,0.90
2019-02-26T06:28:40.176Z,1.10
2019-02-26T06:31:19.882Z,1.22
2019-02-26T06:34:03.527Z,1.00
2019-02-26T06:36:42.004Z,1.10
2019-02-26T06:39:24.576Z,1.25
2019-02-26T06:42:05.206Z,1.10
2019-02-26T06:44:47.105Z,1.20
2019-02-26T06:47:27.971Z,1.20
2019-02-26T06:50:13.969Z,1.17
2019-02-26T06:52:54.925Z,1.20
2019-02-26T06:55:32.231Z,1.37
2019-02-26T06:58:11.794Z,1.50
2019-02-26T07:00:55.146Z,1.30
2019-02-26T07:03:32.884Z,1.20
2019-02-26T07:06:12.933Z,1.30
2019-02-26T07:08:53.489Z,1.00
2019-02-26T07:11:35.429Z,0.85
2019-02-26T07:14:14.574Z,0.93
2019-02-26T07:16:56.531Z,1.75
2019-02-26T07:19:38.026Z,1.40
2019-02-26T07:22:18.335Z,1.45
2019-02-26T07:24:57.457Z,1.87
2019-02-26T07:27:38.450Z,1.60
2019-02-26T07:30:18.438Z,1.62
2019-02-26T07:32:57.531Z,1.45
2019-02-26T07:35:39.620Z,1.17
2019-02-26T07:38:20.732Z,1.40
2019-02-26T07:41:01.878Z,1.25
2019-02-26T07:43:44.096Z,1.30
2019-02-26T07:46:22.903Z,1.45
2019-02-26T07:49:04.913Z,1.60
2019-02-26T07:51:44.117Z,1.25
2019-02-26T07:54:23.875Z,1.37
2019-02-26T07:57:02.594Z,1.55
2019-02-26T07:59:50.189Z,1.42
2019-02-26T08:02:32.385Z,1.75
2019-02-26T08:05:12.153Z,1.62
2019-02-26T08:07:53.875Z,1.57
2019-02-26T08:10:35.159Z,2.10
2019-02-26T08:13:11.638Z,1.77
2019-02-26T08:15:52.742Z,1.90
2019-02-26T08:18:32.581Z,1.50
2019-02-26T08:21:12.231Z,1.60
2019-02-26T08:23:52.775Z,1.60
2019-02-26T08:26:32.422Z,1.20
2019-02-26T08:29:12.441Z,1.50
2019-02-26T08:31:52.048Z,1.40
2019-02-26T08:34:32.685Z,1.30
2019-02-26T08:37:11.736Z,1.70
2019-02-26T08:39:48.972Z,1.82
2019-02-26T08:42:15.409Z,1.95
2019-02-26T08:45:01.619Z,1.35
2019-02-26T08:47:41.138Z,2.05
2019-02-26T08:50:18.545Z,1.35
2019-02-26T08:52:58.668Z,1.45
2019-02-26T08:55:38.475Z,1.77
2019-02-26T08:58:18.538Z,1.80
2019-02-26T09:00:58.525Z,1.60
2019-02-26T09:03:40.908Z,2.30
2019-02-26T09:06:19.853Z,1.67
2019-02-26T09:09:00.159Z,1.92
2019-02-26T09:11:40.622Z,2.22
2019-02-26T09:14:20.705Z,2.65
2019-02-26T09:17:02.157Z,2.58
2019-02-26T09:19:42.705Z,2.30
2019-02-26T09:22:26.070Z,1.77
2019-02-26T09:25:05.638Z,1.70
2019-02-26T09:27:45.060Z,1.60
2019-02-26T09:30:24.745Z,1.70
2019-02-26T09:33:06.361Z,2.00
2019-02-26T09:35:45.164Z,1.80
2019-02-26T09:38:25.890Z,2.00
2019-02-26T09:41:06.826Z,1.87
2019-02-26T09:43:48.119Z,2.00
2019-02-26T09:46:16.497Z,1.90
2019-02-26T09:49:04.617Z,1.50
2019-02-26T09:51:43.853Z,2.10
2019-02-26T09:54:23.927Z,1.92
2019-02-26T09:57:03.693Z,1.75
2019-02-26T09:59:42.941Z,1.72
2019-02-26T10:02:24.655Z,1.70
2019-02-26T10:05:03.787Z,1.95
2019-02-26T10:07:43.822Z,2.05
2019-02-26T10:10:25.310Z,1.72
2019-02-26T10:13:04.709Z,1.75
2019-02-26T10:15:44.837Z,1.35
2019-02-26T10:18:25.663Z,1.67
2019-02-26T10:21:08.565Z,1.45
2019-02-26T10:23:49.344Z,1.87
2019-02-26T10:26:30.608Z,1.85
2019-02-26T10:29:09.388Z,1.50
2019-02-26T10:34:30.525Z,1.42
2019-02-26T10:37:10.534Z,1.90
2019-02-26T10:39:52.233Z,1.20
2019-02-26T10:42:39.642Z,1.15
2019-02-26T10:45:12.737Z,2.00
2019-02-26T10:47:54.249Z,1.90
2019-02-26T10:50:33.854Z,1.50
2019-02-26T10:53:16.186Z,1.52
2019-02-26T11:01:55.302Z,1.40
2019-02-26T11:04:35.545Z,1.85
2019-02-26T11:07:15.547Z,1.60
2019-02-26T11:09:58.643Z,1.92
2019-02-26T11:12:37.322Z,1.70
2019-02-26T11:18:28.728Z,1.57
2019-02-26T11:20:56.010Z,1.67
2019-02-26T11:23:44.038Z,1.50
2019-02-26T11:29:38.793Z,1.30
2019-02-26T11:32:17.861Z,1.52
2019-02-26T11:34:58.022Z,1.40
2019-02-26T11:37:39.035Z,1.75
2019-02-26T11:40:20.311Z,1.30
2019-02-26T11:43:08.662Z,1.70
2019-02-26T11:45:41.990Z,1.52
2019-02-26T11:48:23.362Z,1.80
2019-02-26T11:51:03.186Z,1.70
2019-02-26T11:59:42.919Z,1.50
2019-02-26T12:02:26.695Z,1.50
2019-02-26T12:05:05.451Z,1.85
2019-02-26T12:07:46.141Z,1.47
2019-02-26T12:10:27.075Z,1.65
2019-02-26T12:13:07.700Z,1.62
2019-02-26T12:15:46.878Z,1.60
2019-02-26T12:18:26.958Z,1.17
2019-02-26T12:21:07.898Z,1.47
2019-02-26T12:23:47.382Z,1.65
2019-02-26T12:26:27.958Z,1.50
2019-02-26T12:32:22.368Z,1.30
2019-02-26T12:35:03.496Z,1.60
2019-02-26T12:37:43.399Z,1.50
2019-02-26T12:40:25.439Z,1.42
2019-02-26T12:43:06.616Z,1.65
2019-02-26T12:45:46.726Z,1.57
2019-02-26T12:48:26.808Z,1.65
2019-02-26T12:51:07.784Z,1.62
2019-02-26T12:53:50.037Z,1.60
2019-02-26T12:56:32.952Z,1.55
2019-02-26T12:59:11.035Z,1.12
2019-02-26T13:01:51.954Z,1.50
2019-02-26T13:04:31.182Z,1.77
2019-02-26T13:07:11.169Z,1.35
2019-02-26T13:09:54.961Z,1.77
2019-02-26T13:12:32.606Z,1.45
2019-02-26T13:15:12.505Z,1.45
2019-02-26T13:17:54.465Z,1.57
2019-02-26T13:20:33.350Z,1.42
2019-02-26T13:23:17.813Z,1.72
2019-02-26T13:25:54.373Z,1.85
2019-02-26T13:28:34.212Z,1.72
2019-02-26T13:31:13.543Z,1.50
2019-02-26T13:33:59.695Z,1.62
2019-02-26T13:36:42.760Z,1.42
2019-02-26T13:39:25.443Z,1.70
2019-02-26T13:42:09.198Z,1.45
2019-02-26T13:44:42.259Z,1.70
2019-02-26T13:47:22.402Z,1.40
2019-02-26T13:49:59.687Z,1.40
2019-02-26T13:52:39.625Z,1.32
2019-02-26T13:55:19.422Z,1.55
2019-02-26T13:57:58.911Z,1.60
2019-02-26T14:00:38.500Z,1.90
2019-02-26T14:03:18.497Z,1.60
2019-02-26T14:05:58.347Z,1.60
2019-02-26T14:08:35.859Z,1.40
2019-02-26T14:11:21.947Z,1.22
2019-02-26T14:14:01.583Z,1.57
2019-02-26T14:16:41.445Z,1.50
2019-02-26T14:19:20.665Z,1.45
2019-02-26T14:21:59.777Z,1.70
2019-02-26T14:24:39.962Z,1.82
2019-02-26T14:27:19.811Z,1.87
2019-02-26T14:30:01.023Z,1.52
2019-02-26T14:32:40.878Z,1.95
2019-02-26T14:35:20.125Z,1.70
2019-02-26T14:38:00.179Z,1.65
2019-02-26T14:40:40.226Z,1.52
2019-02-26T14:43:19.321Z,1.70
2019-02-26T14:45:56.749Z,1.85
2019-02-26T14:48:36.389Z,1.40
2019-02-26T14:51:17.730Z,1.47
2019-02-26T14:53:57.130Z,2.10
2019-02-26T14:59:49.405Z,1.55
2019-02-26T15:02:29.328Z,1.62
2019-02-26T15:05:08.501Z,1.37
2019-02-26T15:07:48.487Z,1.47
2019-02-26T15:10:28.318Z,1.47
2019-02-26T15:13:08.337Z,1.50
2019-02-26T15:15:48.380Z,1.47
2019-02-26T15:18:28.237Z,2.00
2019-02-26T15:21:08.288Z,1.60
2019-02-26T15:23:50.256Z,2.10
2019-02-26T15:26:27.526Z,1.67
2019-02-26T15:29:13.633Z,1.85
2019-02-26T15:31:53.130Z,1.87
2019-02-26T15:34:30.451Z,1.50
2019-02-26T15:37:10.177Z,2.05
2019-02-26T15:39:51.321Z,2.15
2019-02-26T15:42:31.349Z,2.02
2019-02-26T15:45:11.386Z,2.10
2019-02-26T15:47:51.319Z,2.25
2019-02-26T15:50:30.584Z,1.98
2019-02-26T15:53:10.047Z,2.17
2019-02-26T15:55:50.063Z,1.60
2019-02-26T15:58:30.075Z,2.33
2019-02-26T16:04:22.194Z,1.95
2019-02-26T16:07:01.333Z,2.30
2019-02-26T16:09:41.395Z,2.15
2019-02-26T16:12:21.482Z,2.20
2019-02-26T16:15:01.568Z,2.35
2019-02-26T16:17:41.407Z,2.02
2019-02-26T16:20:21.521Z,2.00
2019-02-26T16:26:00.077Z,2.15
2019-02-26T16:28:39.805Z,2.33
2019-02-26T16:31:19.277Z,2.20
2019-02-26T16:33:59.227Z,2.15
2019-02-26T16:36:38.493Z,2.17
2019-02-26T16:39:18.354Z,2.10
2019-02-26T16:41:58.707Z,2.12
2019-02-26T16:44:38.353Z,3.12
2019-02-26T16:47:18.586Z,2.42
2019-02-26T16:50:09.548Z,2.30
2019-02-26T16:52:40.252Z,2.95
2019-02-26T16:55:19.466Z,2.35
2019-02-26T16:58:02.261Z,2.12
2019-02-26T17:00:40.465Z,2.55
2019-02-26T17:03:19.765Z,2.85
2019-02-26T17:05:59.775Z,2.87
2019-02-26T17:08:40.006Z,2.65
2019-02-26T17:11:19.766Z,2.62
2019-02-26T17:13:59.782Z,2.20
2019-02-26T17:16:39.830Z,2.58
2019-02-26T17:22:17.884Z,2.02
2019-02-26T17:24:56.993Z,2.80
2019-02-26T17:27:36.552Z,2.67
2019-02-26T17:30:17.185Z,2.70
2019-02-26T17:32:56.402Z,2.87
2019-02-26T17:35:35.516Z,2.52
2019-02-26T17:38:15.478Z,2.50
2019-02-26T17:40:55.855Z,2.70
2019-02-26T17:43:35.333Z,2.60
2019-02-26T17:46:15.318Z,2.92
2019-02-26T17:48:55.409Z,2.60
2019-02-26T17:51:34.512Z,2.40
2019-02-26T17:54:13.931Z,2.15
2019-02-26T17:56:53.365Z,3.30
2019-02-26T17:59:33.186Z,2.65
2019-02-26T18:02:13.445Z,2.60
2019-02-26T18:04:53.540Z,1.75
2019-02-26T18:07:32.956Z,1.95
2019-02-26T18:10:13.521Z,2.42
2019-02-26T18:12:54.059Z,2.40
2019-02-26T18:15:33.923Z,1.92
2019-02-26T18:18:13.960Z,2.12
2019-02-26T18:24:06.509Z,2.42
2019-02-26T18:26:46.528Z,2.52
2019-02-26T18:29:26.225Z,2.45
2019-02-26T18:32:05.894Z,2.25
2019-02-26T18:34:46.186Z,2.67
2019-02-26T18:37:26.002Z,2.05
2019-02-26T18:40:05.129Z,2.30
2019-02-26T18:42:45.049Z,2.45
2019-02-26T18:45:28.086Z,2.62
2019-02-26T18:48:06.749Z,2.05
2019-02-26T18:50:46.741Z,2.98
2019-02-26T18:53:26.586Z,2.80
2019-02-26T18:56:06.901Z,2.47
2019-02-26T18:58:49.064Z,2.85
2019-02-26T19:01:28.478Z,2.75
2019-02-26T19:04:08.840Z,2.47
2019-02-26T19:06:48.815Z,2.45
2019-02-26T19:09:28.714Z,3.60
2019-02-26T19:12:07.978Z,3.40
2019-02-26T19:14:47.934Z,3.30
2019-02-26T19:17:27.399Z,3.33
2019-02-26T19:20:07.133Z,3.40
2019-02-26T19:22:33.390Z,5.70
2019-02-26T19:24:59.639Z,3.77
2019-02-26T19:27:45.922Z,3.27
2019-02-26T19:30:25.466Z,3.47
2019-02-26T19:33:05.491Z,3.80
2019-02-26T19:35:45.487Z,3.37
2019-02-26T19:38:27.524Z,4.45
2019-02-26T19:41:07.827Z,4.10
2019-02-26T19:43:47.000Z,3.83
2019-02-26T19:46:27.143Z,3.22
2019-02-26T19:49:07.103Z,2.92
2019-02-26T19:51:47.053Z,3.27
2019-02-26T19:54:27.293Z,3.10
2019-02-26T19:57:06.997Z,2.25
2019-02-26T19:59:46.856Z,2.40
2019-02-26T20:02:32.347Z,3.20
2019-02-26T20:05:12.885Z,3.20
2019-02-26T20:07:53.203Z,3.00
2019-02-26T20:10:32.693Z,2.47
2019-02-26T20:13:12.738Z,2.30
2019-02-26T20:15:54.862Z,2.27
2019-02-26T20:18:32.161Z,2.42
2019-02-26T20:21:11.877Z,2.70
2019-02-26T20:23:53.483Z,2.70
2019-02-26T20:26:32.902Z,3.15
2019-02-26T20:29:12.945Z,2.75
2019-02-26T20:31:55.383Z,2.55
2019-02-26T20:34:33.989Z,2.37
2019-02-26T20:37:13.437Z,2.20
2019-02-26T20:39:53.074Z,2.40
2019-02-26T20:42:33.258Z,2.30
2019-02-26T20:45:13.185Z,2.67
2019-02-26T20:47:52.296Z,2.60
2019-02-26T20:56:44.717Z,2.60
2019-02-26T20:59:24.106Z,2.02
2019-02-26T21:02:03.516Z,2.00
2019-02-26T21:04:44.489Z,1.75
2019-02-26T21:07:25.112Z,1.90
2019-02-26T21:10:04.536Z,1.65
2019-02-26T21:12:43.632Z,1.82
2019-02-26T21:15:22.854Z,2.20
2019-02-26T21:18:02.820Z,1.70
2019-02-26T21:20:42.428Z,2.02
2019-02-26T21:23:22.469Z,2.00
2019-02-26T21:26:03.382Z,1.92
2019-02-26T21:28:43.225Z,1.60
2019-02-26T21:31:22.375Z,2.10
2019-02-26T21:34:03.678Z,1.77
2019-02-26T21:36:40.913Z,1.75
2019-02-26T21:39:20.657Z,1.70
2019-02-26T21:41:59.805Z,1.50
2019-02-26T21:44:41.847Z,1.75
2019-02-26T21:47:21.836Z,1.60
2019-02-26T21:50:02.053Z,1.90
2019-02-26T21:52:42.748Z,1.70
2019-02-26T21:55:22.230Z,1.37
2019-02-26T21:58:02.066Z,1.87
2019-02-26T22:00:42.113Z,1.37
2019-02-26T22:03:24.576Z,1.37
2019-02-26T22:06:05.537Z,1.60
2019-02-26T22:08:41.965Z,1.42
2019-02-26T22:11:21.689Z,1.40
2019-02-26T22:14:02.841Z,1.77
2019-02-26T22:16:43.139Z,1.45
2019-02-26T22:19:22.656Z,1.60
2019-02-26T22:22:02.796Z,1.50
2019-02-26T22:24:42.687Z,1.60
2019-02-26T22:27:21.850Z,1.32
2019-02-26T22:30:00.980Z,1.42
2019-02-26T22:32:41.053Z,1.30
2019-02-26T22:35:21.057Z,1.50
2019-02-26T22:38:01.195Z,1.40
2019-02-26T22:40:40.917Z,1.60
2019-02-26T22:43:20.987Z,1.60
2019-02-26T22:46:01.658Z,1.62
2019-02-26T22:48:40.955Z,1.65
2019-02-26T22:51:21.030Z,1.87
2019-02-26T22:54:00.169Z,1.30
2019-02-26T22:56:37.486Z,1.70
2019-02-26T22:59:17.494Z,1.55
2019-02-26T23:01:57.517Z,1.70
2019-02-26T23:04:37.338Z,1.20
2019-02-26T23:07:14.927Z,1.85
2019-02-26T23:09:54.686Z,1.37
2019-02-26T23:12:34.567Z,1.70
2019-02-26T23:15:14.468Z,1.30
2019-02-26T23:17:58.117Z,1.40
2019-02-26T23:20:35.606Z,1.57
2019-02-26T23:23:15.324Z,1.27
2019-02-26T23:25:53.870Z,1.30
2019-02-26T23:28:33.069Z,1.40
2019-02-26T23:31:13.221Z,1.30
2019-02-26T23:33:52.873Z,1.50
2019-02-26T23:36:32.987Z,1.60
2019-02-26T23:39:13.025Z,1.40
2019-02-26T23:41:50.526Z,1.47
2019-02-26T23:44:30.143Z,1.60
2019-02-26T23:47:10.098Z,1.40
2019-02-26T23:49:49.987Z,1.70
2019-02-26T23:52:29.931Z,1.40
2019-02-26T23:55:13.131Z,1.40
2019-02-26T23:57:51.819Z,1.30
